Time;durP1;ratioP1;P1;durP2;ratioP2;P2;SDS_P1;SDS_P2;PMS_P1;PMS_P2;Temp;Humidity;BMP_temperature;BMP_pressure;BME280_temperature;BME280_humidity;BME280_pressure;Samples;Min_cycle;Max_cycle;Signal;HPM_P1;HPM_P2
2023/08/10 00:00:12;;;;;;;4.45;1.52;;;14.20;99.90;;;;;;5016842;28;20489;-73
2023/08/10 00:02:39;;;;;;;3.58;1.92;;;14.20;99.90;;;;;;5030761;28;20049;-73
2023/08/10 00:05:05;;;;;;;12.82;1.85;;;14.30;99.90;;;;;;5029341;28;20017;-74
2023/08/10 00:07:31;;;;;;;6.88;2.03;;;14.30;99.90;;;;;;5028764;28;20075;-73
2023/08/10 00:09:57;;;;;;;5.40;1.77;;;14.30;99.90;;;;;;5015663;28;20030;-73
2023/08/10 00:12:22;;;;;;;10.07;1.55;;;14.30;99.90;;;;;;5011342;28;20020;-73
2023/08/10 00:14:48;;;;;;;9.70;2.35;;;14.30;99.90;;;;;;5027673;28;20109;-74
2023/08/10 00:17:15;;;;;;;7.35;1.88;;;14.30;99.90;;;;;;5012670;28;20030;-73
2023/08/10 00:19:40;;;;;;;6.78;1.80;;;14.30;99.90;;;;;;5021555;28;20053;-73
2023/08/10 00:22:06;;;;;;;4.88;1.55;;;14.30;99.90;;;;;;5028154;28;20056;-73
2023/08/10 00:24:31;;;;;;;3.53;1.75;;;14.30;99.90;;;;;;5030547;28;20091;-74
2023/08/10 00:26:57;;;;;;;8.63;2.33;;;14.40;99.90;;;;;;5029428;28;20017;-73
2023/08/10 00:29:23;;;;;;;9.05;2.40;;;14.40;99.90;;;;;;5030789;28;20045;-71
2023/08/10 00:31:49;;;;;;;7.50;2.30;;;14.40;99.90;;;;;;5028576;28;20060;-72
2023/08/10 00:34:15;;;;;;;5.15;2.13;;;14.40;99.90;;;;;;5016487;28;20026;-73
2023/08/10 00:36:41;;;;;;;7.88;3.03;;;14.40;99.90;;;;;;5014796;28;20030;-73
2023/08/10 00:39:07;;;;;;;9.35;2.97;;;14.40;99.90;;;;;;5010533;28;20076;-73
2023/08/10 00:41:33;;;;;;;6.13;2.53;;;14.40;99.90;;;;;;5024918;28;20026;-73
2023/08/10 00:43:59;;;;;;;5.90;3.35;;;14.40;99.90;;;;;;5029976;28;20038;-73
2023/08/10 00:46:25;;;;;;;6.25;3.42;;;14.40;99.90;;;;;;5028778;28;20611;-73
2023/08/10 00:48:51;;;;;;;8.20;2.97;;;14.40;99.90;;;;;;5029065;28;20029;-73
2023/08/10 00:51:16;;;;;;;5.32;2.83;;;14.50;99.90;;;;;;5028779;28;20101;-73
2023/08/10 00:53:42;;;;;;;4.90;2.40;;;14.50;99.90;;;;;;5029806;28;20018;-73
2023/08/10 00:56:10;;;;;;;6.28;2.92;;;14.50;99.90;;;;;;5028198;28;20033;-73
2023/08/10 00:58:36;;;;;;;5.63;3.05;;;14.50;99.90;;;;;;5028512;28;20044;-73
2023/08/10 01:01:02;;;;;;;5.45;3.13;;;14.50;99.90;;;;;;5024120;28;20022;-73
2023/08/10 01:03:28;;;;;;;6.43;3.00;;;14.50;99.90;;;;;;5010368;28;20053;-73
2023/08/10 01:06:23;;;;;;;8.35;3.50;;;14.50;99.90;;;;;;5009541;28;20056;-73
2023/08/10 01:09:09;;;;;;;8.23;2.78;;;14.60;99.90;;;;;;5024879;28;20115;-73
2023/08/10 01:11:58;;;;;;;7.00;2.65;;;14.50;99.90;;;;;;5014244;28;20029;-73
2023/08/10 01:14:40;;;;;;;10.20;3.30;;;14.50;99.90;;;;;;5023601;28;20041;-73
2023/08/10 01:17:12;;;;;;;6.88;3.40;;;14.60;99.90;;;;;;5028481;28;20029;-73
2023/08/10 01:19:41;;;;;;;6.95;3.47;;;14.60;99.90;;;;;;5030065;28;20060;-73
2023/08/10 01:22:25;;;;;;;5.80;3.30;;;14.50;99.90;;;;;;5021564;28;20034;-73
2023/08/10 01:25:05;;;;;;;6.95;2.97;;;14.50;99.90;;;;;;5015042;28;20084;-73
2023/08/10 01:27:32;;;;;;;4.35;2.80;;;14.60;99.90;;;;;;5032696;28;20040;-74
2023/08/10 01:30:00;;;;;;;5.93;3.42;;;14.60;99.90;;;;;;5013272;28;20137;-73
2023/08/10 01:32:27;;;;;;;6.13;3.28;;;14.50;99.90;;;;;;5013920;28;20026;-73
2023/08/10 01:34:54;;;;;;;8.60;3.33;;;14.60;99.90;;;;;;5017961;28;20021;-73
2023/08/10 01:37:19;;;;;;;6.72;3.20;;;14.50;99.90;;;;;;5033193;28;20040;-73
2023/08/10 01:39:45;;;;;;;4.50;3.15;;;14.50;99.90;;;;;;5013979;28;20026;-73
2023/08/10 01:42:11;;;;;;;8.57;3.20;;;14.60;99.90;;;;;;5019158;28;20489;-73
2023/08/10 01:44:37;;;;;;;9.85;3.50;;;14.50;99.90;;;;;;5031831;28;20064;-73
2023/08/10 01:47:06;;;;;;;9.73;4.00;;;14.50;99.90;;;;;;5032772;28;20425;-73
2023/08/10 01:49:34;;;;;;;5.47;3.00;;;14.50;99.90;;;;;;5028305;28;20018;-73
2023/08/10 01:52:04;;;;;;;8.63;3.00;;;14.50;99.90;;;;;;5014351;28;20034;-73
2023/08/10 01:54:31;;;;;;;8.32;3.47;;;14.50;99.90;;;;;;5032244;28;20111;-73
2023/08/10 01:56:57;;;;;;;6.18;3.25;;;14.50;99.90;;;;;;5031703;28;20036;-73
2023/08/10 01:59:23;;;;;;;10.88;4.05;;;14.50;99.90;;;;;;5030580;28;20095;-73
2023/08/10 02:01:48;;;;;;;6.82;3.08;;;14.50;99.90;;;;;;5032459;28;20049;-71
2023/08/10 02:04:14;;;;;;;7.30;3.83;;;14.50;99.90;;;;;;5022278;28;20033;-73
2023/08/10 02:06:40;;;;;;;5.30;2.38;;;14.50;99.90;;;;;;5032701;28;20382;-73
2023/08/10 02:09:06;;;;;;;9.05;2.55;;;14.50;99.90;;;;;;5023605;28;20057;-73
2023/08/10 02:11:32;;;;;;;5.63;3.00;;;14.40;99.90;;;;;;5031233;28;20065;-74
2023/08/10 02:13:59;;;;;;;6.63;4.00;;;14.40;99.90;;;;;;5031065;28;20026;-73
2023/08/10 02:16:24;;;;;;;9.02;3.30;;;14.40;99.90;;;;;;5024234;28;20045;-73
2023/08/10 02:18:50;;;;;;;6.63;3.35;;;14.40;99.90;;;;;;5032291;28;20022;-73
2023/08/10 02:21:15;;;;;;;9.65;4.50;;;14.40;99.90;;;;;;5031051;28;20029;-73
2023/08/10 02:23:41;;;;;;;6.35;3.55;;;14.40;99.90;;;;;;5029563;28;20037;-73
2023/08/10 02:26:06;;;;;;;5.63;3.38;;;14.40;99.90;;;;;;5032268;28;20026;-73
2023/08/10 02:28:32;;;;;;;6.28;3.17;;;14.30;99.90;;;;;;5032018;28;20088;-73
2023/08/10 02:30:59;;;;;;;7.75;3.15;;;14.30;99.90;;;;;;5030353;28;20159;-71
2023/08/10 02:33:24;;;;;;;9.05;2.95;;;14.30;99.90;;;;;;5020392;28;20026;-71
2023/08/10 02:35:50;;;;;;;10.20;3.33;;;14.20;99.90;;;;;;5018194;28;20029;-71
2023/08/10 02:38:15;;;;;;;6.10;4.18;;;14.10;99.90;;;;;;5031900;28;20094;-73
2023/08/10 02:40:41;;;;;;;8.10;3.97;;;14.00;99.90;;;;;;5030985;28;20096;-73
2023/08/10 02:43:06;;;;;;;6.35;3.72;;;14.00;99.90;;;;;;5031100;28;20037;-73
2023/08/10 02:45:32;;;;;;;6.90;3.40;;;13.80;99.90;;;;;;5031322;28;20079;-73
2023/08/10 02:47:57;;;;;;;7.05;4.18;;;13.70;99.90;;;;;;5031743;28;20029;-73
2023/08/10 02:50:23;;;;;;;10.30;4.53;;;13.70;99.90;;;;;;5021317;28;20485;-73
2023/08/10 02:52:48;;;;;;;6.95;3.80;;;13.60;99.90;;;;;;5029530;28;20041;-73
2023/08/10 02:55:15;;;;;;;5.45;3.22;;;13.50;99.90;;;;;;5031531;28;20072;-73
2023/08/10 02:57:41;;;;;;;8.20;4.15;;;13.40;99.90;;;;;;5031853;28;20018;-73
2023/08/10 03:00:07;;;;;;;9.35;4.07;;;13.40;99.90;;;;;;5030410;28;20025;-73
2023/08/10 03:02:33;;;;;;;9.93;3.92;;;13.30;99.90;;;;;;5025744;28;20075;-73
2023/08/10 03:04:59;;;;;;;7.60;3.45;;;13.20;99.90;;;;;;5030245;28;20105;-73
2023/08/10 03:07:26;;;;;;;6.55;3.83;;;13.20;99.90;;;;;;5030251;28;20386;-73
2023/08/10 03:09:52;;;;;;;10.25;3.95;;;13.20;99.90;;;;;;5029945;28;20033;-73
2023/08/10 03:12:18;;;;;;;7.43;4.13;;;13.10;99.90;;;;;;5022494;28;20033;-73
2023/08/10 03:14:44;;;;;;;7.07;4.07;;;13.20;99.90;;;;;;5025011;28;20029;-74
2023/08/10 03:17:10;;;;;;;7.05;4.15;;;13.20;99.90;;;;;;5031310;28;20108;-73
2023/08/10 03:19:36;;;;;;;11.10;4.35;;;13.10;99.90;;;;;;5030225;28;20350;-73
2023/08/10 03:22:01;;;;;;;7.72;4.15;;;13.20;99.90;;;;;;5031152;28;20116;-73
2023/08/10 03:24:27;;;;;;;6.75;3.53;;;13.20;99.90;;;;;;5031304;28;20520;-73
2023/08/10 03:26:52;;;;;;;9.82;4.53;;;13.20;99.90;;;;;;5029311;28;20496;-73
2023/08/10 03:29:18;;;;;;;9.13;4.50;;;13.20;99.90;;;;;;5031314;28;20470;-73
2023/08/10 03:31:44;;;;;;;10.35;3.85;;;13.20;99.90;;;;;;5028782;28;20036;-74
2023/08/10 03:34:09;;;;;;;8.60;4.28;;;13.20;99.90;;;;;;5030612;28;20026;-73
2023/08/10 03:36:35;;;;;;;9.05;4.10;;;13.30;99.90;;;;;;5028646;28;20022;-73
2023/08/10 03:39:00;;;;;;;12.73;4.25;;;13.30;99.90;;;;;;5028624;28;20374;-73
2023/08/10 03:41:26;;;;;;;9.07;3.55;;;13.30;99.90;;;;;;5012365;28;20033;-73
2023/08/10 03:43:51;;;;;;;9.77;4.68;;;13.30;99.90;;;;;;5011263;28;20092;-73
2023/08/10 03:46:17;;;;;;;7.22;3.88;;;13.40;99.90;;;;;;5022801;28;20435;-73
2023/08/10 03:48:42;;;;;;;7.15;4.22;;;13.40;99.90;;;;;;5030610;28;20026;-72
2023/08/10 03:51:08;;;;;;;6.53;4.32;;;13.50;99.90;;;;;;5016787;28;20465;-71
2023/08/10 03:53:33;;;;;;;9.15;5.70;;;13.40;99.90;;;;;;5014620;28;20197;-71
2023/08/10 03:55:59;;;;;;;11.60;5.35;;;13.50;99.90;;;;;;5030563;28;20037;-73
2023/08/10 03:58:24;;;;;;;7.85;5.25;;;13.50;99.90;;;;;;5030815;28;20025;-73
2023/08/10 04:00:50;;;;;;;10.40;5.07;;;13.40;99.90;;;;;;5020643;28;20065;-73
2023/08/10 04:03:16;;;;;;;9.55;4.85;;;13.50;99.90;;;;;;5019020;28;20456;-73
2023/08/10 04:05:41;;;;;;;8.43;4.97;;;13.40;99.90;;;;;;5028711;28;20022;-74
2023/08/10 04:08:08;;;;;;;10.48;4.32;;;13.50;99.90;;;;;;5014666;28;20474;-73
2023/08/10 04:10:34;;;;;;;9.80;5.60;;;13.50;99.90;;;;;;5019738;28;20072;-73
2023/08/10 04:13:00;;;;;;;11.77;4.07;;;13.50;99.90;;;;;;5010782;28;20022;-73
2023/08/10 04:15:25;;;;;;;8.52;4.78;;;13.60;99.90;;;;;;5026854;28;20029;-73
2023/08/10 04:17:51;;;;;;;7.28;4.72;;;13.60;99.90;;;;;;5022988;28;20022;-73
2023/08/10 04:20:17;;;;;;;8.00;5.40;;;13.50;99.90;;;;;;5015577;28;20030;-73
2023/08/10 04:22:42;;;;;;;11.27;5.03;;;13.50;99.90;;;;;;5019557;28;20107;-74
2023/08/10 04:25:08;;;;;;;10.40;5.65;;;13.50;99.90;;;;;;5027380;28;20036;-72
2023/08/10 04:27:35;;;;;;;10.70;6.20;;;13.50;99.90;;;;;;5018623;28;20026;-72
2023/08/10 04:30:01;;;;;;;12.13;4.40;;;13.50;99.90;;;;;;5015372;28;20030;-72
2023/08/10 04:32:27;;;;;;;9.45;5.07;;;13.50;99.90;;;;;;5017122;28;20100;-72
2023/08/10 04:34:52;;;;;;;8.07;5.18;;;13.60;99.90;;;;;;5027993;28;20136;-72
2023/08/10 04:37:18;;;;;;;9.95;4.70;;;13.60;99.90;;;;;;5029592;28;20033;-72
2023/08/10 04:39:44;;;;;;;6.97;4.63;;;13.50;99.90;;;;;;5021836;28;20049;-73
2023/08/10 04:42:10;;;;;;;11.98;5.95;;;13.50;99.90;;;;;;5029914;28;20021;-72
2023/08/10 04:44:36;;;;;;;9.13;5.25;;;13.40;99.90;;;;;;5028205;28;20048;-72
2023/08/10 04:47:02;;;;;;;12.95;5.75;;;13.40;99.90;;;;;;5021533;28;20025;-72
2023/08/10 04:49:28;;;;;;;11.02;4.80;;;13.40;99.90;;;;;;5021953;28;20028;-73
2023/08/10 04:51:54;;;;;;;10.05;5.80;;;13.30;99.90;;;;;;5029278;28;20026;-73
2023/08/10 04:54:20;;;;;;;9.65;5.75;;;13.30;99.90;;;;;;5025848;28;20501;-73
2023/08/10 04:56:46;;;;;;;9.32;5.63;;;13.20;99.90;;;;;;5027737;28;20120;-73
2023/08/10 04:59:12;;;;;;;10.63;5.43;;;13.20;99.90;;;;;;5030046;28;20501;-73
2023/08/10 05:01:38;;;;;;;11.75;5.00;;;13.20;99.90;;;;;;5024403;28;20501;-72
2023/08/10 05:04:04;;;;;;;8.57;5.38;;;13.20;99.90;;;;;;5031164;28;20432;-71
2023/08/10 05:06:30;;;;;;;10.57;6.22;;;13.20;99.90;;;;;;5023492;28;20036;-71
2023/08/10 05:08:56;;;;;;;10.73;5.93;;;13.20;99.90;;;;;;5013963;28;20485;-72
2023/08/10 05:11:23;;;;;;;9.75;5.82;;;13.20;99.90;;;;;;5024558;28;20488;-72
2023/08/10 05:13:48;;;;;;;9.65;5.45;;;13.10;99.90;;;;;;5019019;28;20040;-73
2023/08/10 05:16:15;;;;;;;9.15;5.53;;;13.10;99.90;;;;;;5031945;28;20432;-73
2023/08/10 05:18:40;;;;;;;9.13;5.78;;;13.10;99.90;;;;;;5024507;28;20398;-72
2023/08/10 05:21:06;;;;;;;11.57;5.40;;;13.10;99.90;;;;;;5023918;28;20028;-73
2023/08/10 05:23:32;;;;;;;12.60;5.72;;;13.20;99.90;;;;;;5026748;28;20405;-72
2023/08/10 05:25:58;;;;;;;10.57;5.40;;;13.20;99.90;;;;;;5020909;28;20018;-73
2023/08/10 05:28:23;;;;;;;8.93;5.55;;;13.20;99.90;;;;;;5018955;28;20033;-73
2023/08/10 05:30:49;;;;;;;9.60;5.40;;;13.20;99.90;;;;;;5027177;28;20507;-73
2023/08/10 05:33:14;;;;;;;8.30;5.35;;;13.20;99.90;;;;;;5029911;28;20088;-73
2023/08/10 05:35:40;;;;;;;11.27;6.30;;;13.30;99.90;;;;;;5026876;28;20030;-73
2023/08/10 05:38:08;;;;;;;10.93;6.40;;;13.30;99.90;;;;;;5030342;28;20022;-71
2023/08/10 05:40:33;;;;;;;11.02;6.63;;;13.30;99.90;;;;;;5023364;28;20546;-71
2023/08/10 05:42:59;;;;;;;8.40;6.43;;;13.40;99.90;;;;;;5016473;28;20042;-71
2023/08/10 05:45:25;;;;;;;11.45;7.20;;;13.40;99.90;;;;;;5022665;28;20021;-73
2023/08/10 05:47:51;;;;;;;10.88;6.05;;;13.50;99.90;;;;;;5021793;28;20056;-74
2023/08/10 05:50:17;;;;;;;13.95;6.50;;;13.70;99.90;;;;;;5031162;28;20454;-73
2023/08/10 05:55:49;;;;;;;16.95;7.72;;;14.10;99.90;;;;;;5012480;28;20117;-84
2023/08/10 05:58:15;;;;;;;13.93;7.80;;;14.30;99.90;;;;;;4994215;28;20034;-86
2023/08/10 06:00:40;;;;;;;19.02;8.60;;;14.50;99.90;;;;;;4994851;28;20030;-86
2023/08/10 06:03:06;;;;;;;14.88;9.00;;;14.60;99.90;;;;;;4994778;28;20089;-86
2023/08/10 06:05:32;;;;;;;15.45;8.85;;;14.80;99.90;;;;;;4979534;28;20034;-86
2023/08/10 06:07:58;;;;;;;12.77;8.63;;;14.90;99.90;;;;;;4995863;28;20030;-86
2023/08/10 06:10:25;;;;;;;13.95;8.80;;;15.10;99.90;;;;;;4987511;28;20072;-86
2023/08/10 06:12:50;;;;;;;11.82;8.43;;;15.30;99.90;;;;;;5014931;28;20037;-86
2023/08/10 06:15:16;;;;;;;15.60;8.13;;;15.40;99.90;;;;;;5024979;28;20022;-86
2023/08/10 06:17:41;;;;;;;13.10;8.00;;;15.60;99.90;;;;;;5013475;28;20030;-86
2023/08/10 06:20:09;;;;;;;15.98;8.20;;;15.70;99.90;;;;;;4997604;28;20080;-85
2023/08/10 06:22:36;;;;;;;11.13;7.78;;;15.80;99.90;;;;;;5013886;28;20482;-85
2023/08/10 06:25:02;;;;;;;14.18;8.98;;;15.90;99.90;;;;;;5007188;28;20116;-85
2023/08/10 06:27:27;;;;;;;15.57;6.63;;;16.00;99.90;;;;;;5013886;28;20064;-84
2023/08/10 06:29:53;;;;;;;9.73;6.53;;;16.10;99.90;;;;;;5012381;28;20037;-84
2023/08/10 06:32:18;;;;;;;13.07;7.07;;;16.20;99.90;;;;;;5013966;28;20033;-86
2023/08/10 06:34:44;;;;;;;8.70;6.53;;;16.30;99.90;;;;;;5011959;28;20034;-84
2023/08/10 06:37:10;;;;;;;10.98;6.85;;;16.40;99.90;;;;;;5006687;28;20026;-85
2023/08/10 06:39:35;;;;;;;11.27;7.07;;;16.50;99.90;;;;;;5007694;28;20421;-85
2023/08/10 06:42:02;;;;;;;9.10;6.60;;;16.60;99.90;;;;;;5004757;28;20025;-88
2023/08/10 06:44:29;;;;;;;8.05;5.93;;;16.70;99.90;;;;;;5013476;28;20121;-84
2023/08/10 06:46:54;;;;;;;11.85;6.05;;;16.80;99.90;;;;;;4993838;28;20023;-84
2023/08/10 06:49:21;;;;;;;10.20;6.05;;;16.90;99.90;;;;;;4996108;28;20057;-84
2023/08/10 06:51:47;;;;;;;12.50;6.88;;;17.00;99.90;;;;;;4996067;28;20493;-84
2023/08/10 06:54:13;;;;;;;9.02;6.00;;;17.00;99.90;;;;;;4995885;28;20046;-84
2023/08/10 06:56:38;;;;;;;11.70;5.95;;;17.10;99.90;;;;;;4998646;28;20387;-84
2023/08/10 06:59:04;;;;;;;7.25;5.20;;;17.20;99.90;;;;;;5002382;28;20025;-84
2023/08/10 07:01:30;;;;;;;9.45;5.80;;;17.30;99.90;;;;;;4996456;28;20058;-84
2023/08/10 07:03:56;;;;;;;10.02;5.05;;;17.40;99.90;;;;;;4995991;28;20477;-84
2023/08/10 07:06:21;;;;;;;9.82;4.20;;;17.50;99.90;;;;;;4996354;28;20064;-84
2023/08/10 07:08:48;;;;;;;5.82;3.92;;;17.60;99.90;;;;;;4995189;28;20501;-84
2023/08/10 07:11:14;;;;;;;10.48;4.25;;;17.70;99.90;;;;;;4996363;28;20478;-84
2023/08/10 07:13:41;;;;;;;7.88;4.13;;;17.80;99.90;;;;;;4996581;28;20116;-84
2023/08/10 07:16:06;;;;;;;9.27;4.63;;;17.90;99.90;;;;;;4995961;28;20061;-84
2023/08/10 07:18:32;;;;;;;8.27;4.45;;;18.00;99.90;;;;;;4995876;28;20057;-84
2023/08/10 07:20:58;;;;;;;8.82;3.67;;;18.10;99.90;;;;;;4984807;28;20562;-84
2023/08/10 07:23:23;;;;;;;8.95;3.90;;;18.20;99.90;;;;;;4996358;28;20120;-84
2023/08/10 07:25:54;;;;;;;9.50;3.53;;;18.30;99.90;;;;;;4995729;28;20121;-85
2023/08/10 07:28:23;;;;;;;8.80;4.20;;;18.30;99.90;;;;;;4989131;28;20422;-84
2023/08/10 07:30:49;;;;;;;7.30;3.38;;;18.40;99.90;;;;;;4993410;28;20026;-84
2023/08/10 07:33:15;;;;;;;5.88;3.42;;;18.50;99.90;;;;;;4997427;28;20037;-85
2023/08/10 07:35:41;;;;;;;5.05;3.20;;;18.50;99.90;;;;;;4996092;28;20028;-86
2023/08/10 07:38:06;;;;;;;6.38;3.22;;;18.60;99.90;;;;;;4991494;28;20058;-85
2023/08/10 07:40:32;;;;;;;6.93;3.33;;;18.70;99.90;;;;;;4985963;28;20025;-85
2023/08/10 07:42:57;;;;;;;6.57;3.45;;;18.70;99.90;;;;;;5015284;28;20048;-85
2023/08/10 07:45:23;;;;;;;7.47;3.58;;;18.80;99.90;;;;;;4984644;28;20030;-85
2023/08/10 07:47:49;;;;;;;5.35;3.70;;;18.90;99.90;;;;;;4993789;28;20029;-84
2023/08/10 07:50:14;;;;;;;5.03;3.45;;;19.00;99.90;;;;;;4995833;28;20029;-85
2023/08/10 07:52:40;;;;;;;5.93;2.80;;;19.10;99.90;;;;;;4995630;28;20053;-85
2023/08/10 07:55:06;;;;;;;6.15;2.80;;;19.10;99.90;;;;;;4991036;28;20065;-85
2023/08/10 07:57:32;;;;;;;5.00;2.45;;;19.20;99.90;;;;;;4976062;28;20376;-85
2023/08/10 08:00:00;;;;;;;6.30;2.45;;;19.30;99.90;;;;;;4972794;28;20030;-85
2023/08/10 08:02:28;;;;;;;6.90;2.50;;;19.30;99.90;;;;;;4979864;28;20081;-85
2023/08/10 08:04:54;;;;;;;3.83;2.47;;;19.40;99.90;;;;;;4991893;28;20394;-84
2023/08/10 08:07:19;;;;;;;7.00;2.40;;;19.40;99.90;;;;;;4992184;28;20069;-85
2023/08/10 08:09:45;;;;;;;4.22;2.25;;;19.50;99.90;;;;;;4985620;28;20055;-84
2023/08/10 08:12:11;;;;;;;8.18;2.50;;;19.60;99.90;;;;;;4988710;28;20022;-85
2023/08/10 08:14:36;;;;;;;5.65;1.63;;;19.70;99.90;;;;;;4972763;28;20027;-86
2023/08/10 08:17:02;;;;;;;3.25;2.20;;;19.70;99.90;;;;;;4972704;28;20446;-85
2023/08/10 08:19:27;;;;;;;3.15;1.63;;;19.80;99.90;;;;;;4974809;28;20118;-86
2023/08/10 08:21:53;;;;;;;5.13;1.80;;;19.80;99.90;;;;;;4976684;28;20026;-84
2023/08/10 08:24:18;;;;;;;5.90;2.25;;;19.90;99.90;;;;;;4990195;28;20045;-83
2023/08/10 08:26:44;;;;;;;3.63;2.00;;;19.90;99.90;;;;;;4995533;28;20113;-83
2023/08/10 08:29:10;;;;;;;7.72;2.53;;;20.00;99.90;;;;;;4995931;28;20091;-84
2023/08/10 08:31:35;;;;;;;5.97;2.47;;;20.10;99.90;;;;;;4995862;28;20022;-83
2023/08/10 08:34:01;;;;;;;5.68;2.17;;;20.10;99.90;;;;;;4995868;28;20030;-83
2023/08/10 08:36:26;;;;;;;3.75;2.05;;;20.20;99.90;;;;;;4993013;28;20034;-85
2023/08/10 08:38:52;;;;;;;4.20;1.45;;;20.30;99.90;;;;;;4976050;28;20239;-83
2023/08/10 08:41:20;;;;;;;2.80;0.90;;;20.40;99.90;;;;;;4976257;28;20025;-84
2023/08/10 08:43:47;;;;;;;3.38;1.13;;;20.50;99.90;;;;;;4978745;28;20634;-83
2023/08/10 08:46:13;;;;;;;3.45;1.27;;;20.50;99.90;;;;;;4993033;28;20467;-83
2023/08/10 08:48:39;;;;;;;3.92;1.52;;;20.60;99.90;;;;;;4990086;28;20489;-84
2023/08/10 08:51:05;;;;;;;2.97;1.20;;;20.70;99.90;;;;;;4990548;28;20114;-86
2023/08/10 08:53:32;;;;;;;2.38;1.02;;;20.80;99.90;;;;;;4990547;28;20040;-85
2023/08/10 08:55:58;;;;;;;5.80;1.65;;;20.90;99.90;;;;;;4992391;28;20033;-85
2023/08/10 08:58:23;;;;;;;3.17;1.15;;;21.00;99.90;;;;;;4994262;28;20032;-86
2023/08/10 09:00:52;;;;;;;4.57;1.55;;;21.10;99.90;;;;;;5001214;28;20037;-86
2023/08/10 09:03:24;;;;;;;2.22;0.80;;;21.10;99.90;;;;;;4995445;28;20494;-85
2023/08/10 09:05:50;;;;;;;2.50;0.57;;;21.30;99.90;;;;;;4989402;28;20044;-85
2023/08/10 09:08:18;;;;;;;2.20;0.60;;;21.40;99.90;;;;;;4992997;28;20026;-85
2023/08/10 09:10:45;;;;;;;2.17;0.43;;;21.60;99.90;;;;;;4989685;28;20026;-86
2023/08/10 09:13:17;;;;;;;2.67;0.40;;;21.80;99.90;;;;;;4995421;28;20479;-86
2023/08/10 09:15:43;;;;;;;1.50;0.40;;;21.90;99.70;;;;;;4992599;28;20641;-86
2023/08/10 09:18:08;;;;;;;1.88;0.30;;;22.00;98.40;;;;;;4996585;28;20079;-85
2023/08/10 09:20:34;;;;;;;1.30;0.40;;;22.20;98.10;;;;;;4997922;28;20477;-85
2023/08/10 09:23:01;;;;;;;0.98;0.30;;;22.30;97.10;;;;;;4997947;28;20053;-84
2023/08/10 09:25:33;;;;;;;1.13;0.40;;;22.50;96.70;;;;;;4998419;28;20021;-83
2023/08/10 09:27:58;;;;;;;;;;;22.70;95.80;;;;;;4997008;28;20394;-84
2023/08/10 09:30:24;;;;;;;2.08;0.40;;;22.70;95.90;;;;;;4995086;28;19917;-84
2023/08/10 09:32:50;;;;;;;2.92;0.40;;;22.70;95.40;;;;;;4996893;28;20030;-84
2023/08/10 09:35:18;;;;;;;6.63;0.50;;;22.70;95.10;;;;;;4998072;28;20037;-84
2023/08/10 09:37:46;;;;;;;3.45;0.60;;;22.80;94.70;;;;;;4997654;28;20036;-83
2023/08/10 09:40:15;;;;;;;1.38;0.32;;;22.90;94.00;;;;;;4995542;28;20030;-85
2023/08/10 09:42:40;;;;;;;2.15;0.30;;;23.00;93.70;;;;;;4998163;28;20065;-84
2023/08/10 09:45:08;;;;;;;3.60;0.30;;;23.10;93.60;;;;;;4997726;28;20053;-84
2023/08/10 09:47:36;;;;;;;4.40;0.40;;;23.20;93.30;;;;;;4994238;28;20193;-84
2023/08/10 09:50:05;;;;;;;2.28;0.50;;;23.20;93.40;;;;;;5007158;28;20022;-85
2023/08/10 09:52:32;;;;;;;1.45;0.40;;;23.20;92.80;;;;;;4998140;28;20438;-84
2023/08/10 09:54:58;;;;;;;1.65;0.38;;;23.10;92.80;;;;;;4984057;28;20055;-83
2023/08/10 09:57:25;;;;;;;2.40;0.47;;;23.00;92.60;;;;;;4998183;28;20028;-84
2023/08/10 09:59:51;;;;;;;2.15;0.43;;;23.00;92.30;;;;;;4995338;28;20026;-84
2023/08/10 10:02:18;;;;;;;2.28;0.60;;;23.10;92.50;;;;;;4993723;28;20536;-84
2023/08/10 10:04:47;;;;;;;2.05;0.65;;;23.30;92.80;;;;;;4996734;28;20034;-83
2023/08/10 10:07:20;;;;;;;1.73;0.52;;;23.40;92.60;;;;;;4995888;28;20084;-84
2023/08/10 10:09:47;;;;;;;2.15;0.60;;;23.60;92.50;;;;;;4994873;28;20339;-83
2023/08/10 10:12:13;;;;;;;2.38;0.70;;;23.60;92.30;;;;;;4996723;28;20176;-84
2023/08/10 10:14:42;;;;;;;2.33;0.90;;;23.70;92.40;;;;;;4997105;28;20026;-84
2023/08/10 10:17:10;;;;;;;2.58;0.77;;;23.80;91.70;;;;;;5010130;28;20018;-85
2023/08/10 10:19:37;;;;;;;2.55;0.88;;;23.80;91.50;;;;;;4987493;28;20029;-86
2023/08/10 10:22:03;;;;;;;1.83;0.80;;;23.70;91.30;;;;;;4988987;28;20031;-86
2023/08/10 10:24:32;;;;;;;2.28;1.02;;;23.60;91.40;;;;;;4977720;28;20093;-86
2023/08/10 10:27:04;;;;;;;2.50;0.90;;;23.60;91.30;;;;;;4986095;28;20046;-86
2023/08/10 10:29:55;;;;;;;6.25;1.00;;;23.60;91.30;;;;;;4986378;28;20044;-84
2023/08/10 10:32:22;;;;;;;3.23;0.73;;;23.50;91.20;;;;;;4995942;28;20041;-85
2023/08/10 10:34:50;;;;;;;2.55;1.00;;;23.30;91.50;;;;;;4994444;28;20312;-85
2023/08/10 10:37:18;;;;;;;2.75;1.00;;;23.10;91.60;;;;;;5011478;28;20026;-85
2023/08/10 10:39:50;;;;;;;4.40;0.70;;;22.90;91.60;;;;;;4996138;28;20481;-84
2023/08/10 10:42:17;;;;;;;1.98;0.90;;;22.80;92.20;;;;;;4993161;28;20018;-85
2023/08/10 10:45:14;;;;;;;2.60;0.95;;;22.90;92.00;;;;;;4995929;28;20123;-84
2023/08/10 10:47:49;;;;;;;2.70;0.90;;;23.10;92.30;;;;;;4996491;28;20106;-84
2023/08/10 10:50:21;;;;;;;4.20;0.98;;;23.20;92.30;;;;;;4982329;28;20027;-85
2023/08/10 10:53:01;;;;;;;5.22;1.00;;;23.30;91.30;;;;;;4991776;28;20200;-85
2023/08/10 10:55:39;;;;;;;1.75;0.70;;;23.30;91.20;;;;;;4984915;28;20376;-85
2023/08/10 10:58:06;;;;;;;5.68;1.00;;;23.30;91.90;;;;;;4996005;28;20030;-85
2023/08/10 11:00:34;;;;;;;2.50;0.88;;;23.30;91.90;;;;;;4996065;28;20026;-84
2023/08/10 11:03:02;;;;;;;2.45;1.17;;;23.30;91.50;;;;;;4996057;28;20037;-85
2023/08/10 11:05:28;;;;;;;3.22;1.27;;;23.30;91.70;;;;;;4992568;28;20026;-85
2023/08/10 11:07:53;;;;;;;1.85;1.25;;;23.40;91.00;;;;;;4994103;28;20038;-85
2023/08/10 11:10:21;;;;;;;2.45;0.82;;;23.50;90.90;;;;;;5010322;28;20088;-85
2023/08/10 11:12:48;;;;;;;3.00;1.10;;;23.50;91.00;;;;;;4995749;28;20080;-85
2023/08/10 11:15:16;;;;;;;4.78;1.20;;;23.50;90.70;;;;;;4995949;28;20450;-85
2023/08/10 11:17:47;;;;;;;3.97;1.13;;;23.50;90.50;;;;;;4991358;28;20042;-84
2023/08/10 11:20:17;;;;;;;2.33;0.73;;;23.50;90.70;;;;;;4996120;28;20402;-85
2023/08/10 11:22:44;;;;;;;1.60;0.68;;;23.60;90.60;;;;;;4994546;28;20083;-85
2023/08/10 11:25:12;;;;;;;2.47;0.60;;;23.60;90.50;;;;;;4989133;28;20077;-85
2023/08/10 11:27:41;;;;;;;2.75;0.98;;;23.70;90.60;;;;;;4976609;28;20022;-85
2023/08/10 11:30:09;;;;;;;1.98;0.90;;;23.80;90.00;;;;;;4977417;28;20023;-85
2023/08/10 11:32:38;;;;;;;2.50;0.60;;;23.60;90.10;;;;;;4994231;28;20030;-85
2023/08/10 11:35:04;;;;;;;2.55;0.70;;;23.60;90.10;;;;;;4986610;28;20030;-86
2023/08/10 11:37:30;;;;;;;1.58;0.80;;;23.60;90.40;;;;;;4978907;28;20041;-85
2023/08/10 11:40:07;;;;;;;2.97;0.80;;;23.60;90.10;;;;;;4986053;28;20040;-85
2023/08/10 11:42:40;;;;;;;2.15;0.93;;;23.70;90.20;;;;;;4991106;28;20033;-86
2023/08/10 11:45:19;;;;;;;3.08;0.60;;;23.80;90.10;;;;;;5010535;28;20509;-86
2023/08/10 11:47:57;;;;;;;1.63;0.60;;;23.90;90.20;;;;;;5032485;28;20021;-86
2023/08/10 11:50:25;;;;;;;4.13;0.63;;;23.80;89.80;;;;;;5011929;28;20119;-86
2023/08/10 11:52:51;;;;;;;2.63;1.02;;;23.80;90.30;;;;;;4995064;28;20339;-86
2023/08/10 11:55:18;;;;;;;1.55;0.60;;;23.90;90.20;;;;;;4994957;28;20050;-86
2023/08/10 11:57:48;;;;;;;2.95;0.70;;;24.00;90.70;;;;;;5012575;28;20022;-85
2023/08/10 12:00:25;;;;;;;4.38;0.80;;;24.00;90.30;;;;;;4992093;28;20095;-85
2023/08/10 12:03:08;;;;;;;1.63;0.70;;;24.10;90.30;;;;;;4987235;28;20065;-86
2023/08/10 12:05:46;;;;;;;2.42;0.65;;;24.20;89.40;;;;;;4984645;28;20046;-86
2023/08/10 12:08:16;;;;;;;2.63;0.70;;;24.20;89.00;;;;;;4994748;28;20029;-86
2023/08/10 12:10:45;;;;;;;2.20;0.68;;;24.20;88.90;;;;;;4995574;28;20026;-86
2023/08/10 12:13:14;;;;;;;3.38;0.98;;;24.20;89.20;;;;;;4995035;28;20390;-86
2023/08/10 12:15:48;;;;;;;2.55;0.90;;;24.20;89.30;;;;;;4995545;28;20022;-86
2023/08/10 12:18:15;;;;;;;1.63;0.88;;;24.20;88.40;;;;;;4995327;28;20493;-86
2023/08/10 12:20:48;;;;;;;3.47;0.40;;;24.10;87.60;;;;;;4979826;28;20390;-86
2023/08/10 12:23:14;;;;;;;1.02;0.43;;;24.10;89.30;;;;;;4994277;28;20490;-86
2023/08/10 12:25:41;;;;;;;3.35;0.60;;;24.10;88.50;;;;;;5002705;28;20362;-86
2023/08/10 12:28:07;;;;;;;2.33;0.57;;;24.30;87.80;;;;;;4993703;28;20498;-86
2023/08/10 12:30:34;;;;;;;4.22;0.60;;;24.30;87.10;;;;;;5010955;28;20099;-86
2023/08/10 12:33:00;;;;;;;4.60;0.60;;;24.30;86.00;;;;;;5002505;28;20052;-86
2023/08/10 12:35:26;;;;;;;1.90;0.50;;;24.20;86.10;;;;;;4995126;28;20033;-86
2023/08/10 12:37:52;;;;;;;6.07;0.55;;;24.20;87.00;;;;;;4998372;28;20031;-86
2023/08/10 12:40:17;;;;;;;1.95;0.43;;;24.20;88.40;;;;;;4977502;28;20392;-85
2023/08/10 12:42:44;;;;;;;3.00;0.55;;;24.30;89.10;;;;;;4986594;28;20030;-86
2023/08/10 12:45:11;;;;;;;1.40;0.55;;;24.40;88.00;;;;;;4986054;28;20068;-86
2023/08/10 12:47:42;;;;;;;2.63;0.70;;;24.40;87.30;;;;;;4991679;28;20097;-86